Time;durP1;ratioP1;P1;durP2;ratioP2;P2;SDS_P1;SDS_P2;PMS_P1;PMS_P2;Temp;Humidity;BMP_temperature;BMP_pressure;BME280_temperature;BME280_humidity;BME280_pressure;Samples;Min_cycle;Max_cycle;Signal;HPM_P1;HPM_P2
2021/09/13 00:01:56;;;;;;;7.03;2.67;;;14.80;98.00;;;;;;5011211;28;20033;-69
2021/09/13 00:04:21;;;;;;;5.18;2.72;;;14.80;98.00;;;;;;5015631;28;20022;-69
2021/09/13 00:06:47;;;;;;;5.60;2.70;;;14.80;98.00;;;;;;5016528;28;20156;-69
2021/09/13 00:09:13;;;;;;;5.07;2.88;;;14.80;98.00;;;;;;5015578;28;20430;-69
2021/09/13 00:11:38;;;;;;;6.18;2.55;;;14.80;98.00;;;;;;5016946;28;20041;-71
2021/09/13 00:14:04;;;;;;;6.40;2.95;;;14.90;98.00;;;;;;5012188;28;20108;-70
2021/09/13 00:16:29;;;;;;;7.43;3.30;;;14.90;98.00;;;;;;5016568;28;20050;-71
2021/09/13 00:18:55;;;;;;;5.95;2.85;;;14.90;98.00;;;;;;5014249;28;20022;-70
2021/09/13 00:21:21;;;;;;;4.65;2.70;;;15.00;98.00;;;;;;5005912;28;20034;-70
2021/09/13 00:23:46;;;;;;;5.03;2.67;;;15.00;98.00;;;;;;5013628;28;20075;-70
2021/09/13 00:26:12;;;;;;;5.60;2.70;;;15.10;98.00;;;;;;5014213;28;20049;-70
2021/09/13 00:28:38;;;;;;;5.57;2.55;;;15.00;98.00;;;;;;5013086;28;20026;-70
2021/09/13 00:31:04;;;;;;;5.70;2.67;;;15.00;98.00;;;;;;5013566;28;20104;-70
2021/09/13 00:33:29;;;;;;;6.72;3.33;;;14.90;98.00;;;;;;5012479;28;20330;-70
2021/09/13 00:35:55;;;;;;;6.00;2.83;;;14.80;98.00;;;;;;5012230;28;20026;-70
2021/09/13 00:38:21;;;;;;;8.57;3.00;;;14.80;98.00;;;;;;5012777;28;20045;-70
2021/09/13 00:40:46;;;;;;;5.72;3.13;;;14.70;98.00;;;;;;5014859;28;20076;-70
2021/09/13 00:43:12;;;;;;;3.90;2.45;;;14.70;98.00;;;;;;5016548;28;20041;-70
2021/09/13 00:45:38;;;;;;;6.10;2.60;;;14.60;98.00;;;;;;5013884;28;20376;-70
2021/09/13 00:48:04;;;;;;;4.90;2.80;;;14.50;98.00;;;;;;5014128;28;20033;-70
2021/09/13 00:50:30;;;;;;;5.55;2.90;;;14.50;98.00;;;;;;5015858;28;20053;-69
2021/09/13 00:52:56;;;;;;;7.32;3.20;;;14.60;98.00;;;;;;5015144;28;20026;-70
2021/09/13 00:55:23;;;;;;;9.05;2.72;;;14.50;98.00;;;;;;5015356;28;20445;-70
2021/09/13 00:57:52;;;;;;;5.15;2.60;;;14.40;98.00;;;;;;5013343;28;20442;-70
2021/09/13 01:00:18;;;;;;;6.28;2.90;;;14.30;98.00;;;;;;5014644;28;20025;-70
2021/09/13 01:02:44;;;;;;;5.25;2.95;;;14.20;98.00;;;;;;5010811;28;20025;-69
2021/09/13 01:05:10;;;;;;;4.97;2.90;;;14.10;98.00;;;;;;5015768;28;20353;-70
2021/09/13 01:07:36;;;;;;;6.45;3.50;;;14.10;98.00;;;;;;5016140;28;20030;-70
2021/09/13 01:10:03;;;;;;;6.43;3.05;;;14.00;98.00;;;;;;5014552;28;20044;-69
2021/09/13 01:12:30;;;;;;;7.05;3.30;;;14.00;98.00;;;;;;5010164;28;20052;-69
2021/09/13 01:14:55;;;;;;;6.22;3.30;;;14.00;98.00;;;;;;5012589;28;20025;-70
2021/09/13 01:17:21;;;;;;;6.85;3.08;;;14.00;98.00;;;;;;5013773;28;20030;-70
2021/09/13 01:19:47;;;;;;;7.80;3.25;;;14.00;98.00;;;;;;5013717;28;20029;-70
2021/09/13 01:22:14;;;;;;;5.45;3.33;;;14.00;98.00;;;;;;5015044;28;20030;-70
2021/09/13 01:24:40;;;;;;;6.20;3.28;;;14.00;98.00;;;;;;5014400;28;20044;-70
2021/09/13 01:27:09;;;;;;;5.57;3.13;;;14.00;98.00;;;;;;5007047;28;20026;-70
2021/09/13 01:29:36;;;;;;;5.72;3.28;;;14.10;98.00;;;;;;5015115;28;20022;-70
2021/09/13 01:32:03;;;;;;;4.45;2.80;;;14.20;98.00;;;;;;5015691;28;20041;-70
2021/09/13 01:34:29;;;;;;;5.13;3.40;;;14.20;98.00;;;;;;5015658;28;20407;-70
2021/09/13 01:36:54;;;;;;;6.03;3.25;;;14.30;98.00;;;;;;5015812;28;20034;-70
2021/09/13 01:39:20;;;;;;;5.68;2.83;;;14.40;98.00;;;;;;5013656;28;20117;-70
2021/09/13 01:41:46;;;;;;;7.50;3.28;;;14.50;98.00;;;;;;5015995;28;20343;-70
2021/09/13 01:44:16;;;;;;;6.13;3.08;;;14.50;98.00;;;;;;5014508;28;20020;-70
2021/09/13 01:46:43;;;;;;;5.35;2.47;;;14.50;98.00;;;;;;5014211;28;20030;-70
2021/09/13 01:49:13;;;;;;;4.82;3.03;;;14.40;98.00;;;;;;5015552;28;20052;-70
2021/09/13 01:51:40;;;;;;;6.30;2.85;;;14.40;98.00;;;;;;5013919;28;20030;-70
2021/09/13 01:54:06;;;;;;;7.55;3.22;;;14.30;98.00;;;;;;5013205;28;20030;-70
2021/09/13 01:56:33;;;;;;;7.45;3.53;;;14.30;98.00;;;;;;5014384;28;20026;-70
2021/09/13 01:59:02;;;;;;;6.85;3.25;;;14.30;98.00;;;;;;5012695;28;20323;-70
2021/09/13 02:01:28;;;;;;;5.93;3.05;;;14.20;98.00;;;;;;5012064;28;20438;-70
2021/09/13 02:03:53;;;;;;;5.47;3.15;;;14.30;98.00;;;;;;5015077;28;20030;-70
2021/09/13 02:06:20;;;;;;;5.13;2.92;;;14.30;98.00;;;;;;5015018;28;20025;-69
2021/09/13 02:08:46;;;;;;;5.13;3.17;;;14.40;98.00;;;;;;5001027;28;20037;-70
2021/09/13 02:11:12;;;;;;;7.20;3.58;;;14.40;98.00;;;;;;5015326;28;20026;-70
2021/09/13 02:13:38;;;;;;;5.15;3.00;;;14.40;98.00;;;;;;5015654;28;20028;-70
2021/09/13 02:16:08;;;;;;;5.30;3.30;;;14.40;98.00;;;;;;5014041;28;20022;-70
2021/09/13 02:18:34;;;;;;;7.32;3.70;;;14.40;98.00;;;;;;5014115;28;20157;-70
2021/09/13 02:21:00;;;;;;;5.13;3.20;;;14.40;98.00;;;;;;5012906;28;20109;-70
2021/09/13 02:23:26;;;;;;;7.03;3.45;;;14.40;98.00;;;;;;5012937;28;20430;-70
2021/09/13 02:25:52;;;;;;;6.35;3.65;;;14.30;98.00;;;;;;5015277;28;20065;-70
2021/09/13 02:28:18;;;;;;;5.68;3.42;;;14.20;98.00;;;;;;5015262;28;20042;-70
2021/09/13 02:30:44;;;;;;;5.72;2.97;;;14.20;98.00;;;;;;5014638;28;20030;-70
2021/09/13 02:33:10;;;;;;;5.55;3.35;;;14.20;98.00;;;;;;5014793;28;20113;-70
2021/09/13 02:35:36;;;;;;;5.25;3.00;;;14.20;98.00;;;;;;5014704;28;20053;-70
2021/09/13 02:38:01;;;;;;;6.50;3.17;;;14.20;98.00;;;;;;5014273;28;20022;-70
2021/09/13 02:40:27;;;;;;;7.32;3.47;;;14.10;98.00;;;;;;5014561;28;20048;-70
2021/09/13 02:42:53;;;;;;;5.55;2.90;;;14.10;98.00;;;;;;5015584;28;20034;-70
2021/09/13 02:45:19;;;;;;;5.10;2.92;;;14.00;98.00;;;;;;5014683;28;20037;-70
2021/09/13 02:47:44;;;;;;;4.97;3.10;;;14.00;98.00;;;;;;5013706;28;20080;-70
2021/09/13 02:50:11;;;;;;;4.80;2.95;;;14.00;98.00;;;;;;5014549;28;20113;-70
2021/09/13 02:52:37;;;;;;;7.30;3.03;;;13.90;98.00;;;;;;5014589;28;20033;-70
2021/09/13 02:55:06;;;;;;;4.97;3.40;;;13.90;98.00;;;;;;5010235;28;20419;-69
2021/09/13 02:57:34;;;;;;;5.28;3.35;;;13.90;98.00;;;;;;5013777;28;20057;-69
2021/09/13 03:00:00;;;;;;;6.32;3.33;;;13.90;98.00;;;;;;5015054;28;20029;-69
2021/09/13 03:02:26;;;;;;;5.22;3.28;;;13.90;98.00;;;;;;5012910;28;20030;-69
2021/09/13 03:04:51;;;;;;;5.53;3.42;;;13.80;98.00;;;;;;5013779;28;20037;-69
2021/09/13 03:07:17;;;;;;;6.82;3.35;;;13.70;98.00;;;;;;5014510;28;20319;-71
2021/09/13 03:09:42;;;;;;;5.03;3.20;;;13.60;98.00;;;;;;5017317;28;20354;-71
2021/09/13 03:12:09;;;;;;;5.97;3.42;;;13.50;98.00;;;;;;5018450;28;20033;-70
2021/09/13 03:14:34;;;;;;;10.10;4.55;;;13.50;98.00;;;;;;5018436;28;20419;-70
2021/09/13 03:17:00;;;;;;;5.97;3.95;;;13.40;98.00;;;;;;5017651;28;20065;-70
2021/09/13 03:19:26;;;;;;;6.22;3.53;;;13.40;98.00;;;;;;5017711;28;20029;-70
2021/09/13 03:21:52;;;;;;;6.60;3.40;;;13.30;98.00;;;;;;5017779;28;20439;-70
2021/09/13 03:24:18;;;;;;;11.98;3.67;;;13.20;98.00;;;;;;5011339;28;20037;-70
2021/09/13 03:26:44;;;;;;;6.65;3.90;;;13.20;98.00;;;;;;5015073;28;20438;-70
2021/09/13 03:29:10;;;;;;;5.78;3.80;;;13.20;98.00;;;;;;5017989;28;20030;-70
2021/09/13 03:31:35;;;;;;;6.80;3.70;;;13.10;98.00;;;;;;5017739;28;20049;-70
2021/09/13 03:34:01;;;;;;;5.90;3.30;;;13.10;98.00;;;;;;5017270;28;20026;-69
2021/09/13 03:36:27;;;;;;;5.75;3.67;;;13.00;98.00;;;;;;5018278;28;20100;-70
2021/09/13 03:38:53;;;;;;;8.10;3.50;;;13.00;98.00;;;;;;5016596;28;20080;-70
2021/09/13 03:41:18;;;;;;;6.30;3.75;;;12.90;98.00;;;;;;5017895;28;20040;-70
2021/09/13 03:43:44;;;;;;;6.25;3.95;;;12.90;98.00;;;;;;5017303;28;20117;-70
2021/09/13 03:46:10;;;;;;;7.90;3.88;;;12.80;98.00;;;;;;5017157;28;20041;-70
2021/09/13 03:48:36;;;;;;;5.85;3.65;;;12.80;98.00;;;;;;5024385;28;20422;-69
2021/09/13 03:51:02;;;;;;;6.20;3.45;;;12.80;98.00;;;;;;5023209;28;20037;-70
2021/09/13 03:53:27;;;;;;;6.93;4.10;;;12.70;98.00;;;;;;5016365;28;20100;-69
2021/09/13 03:55:53;;;;;;;13.57;3.80;;;12.60;98.00;;;;;;5012989;28;20027;-70
2021/09/13 03:58:19;;;;;;;6.35;4.00;;;12.70;98.00;;;;;;5012183;28;20032;-69
2021/09/13 04:00:45;;;;;;;7.20;4.32;;;12.60;98.00;;;;;;5017487;28;20034;-70
2021/09/13 04:03:17;;;;;;;6.85;4.00;;;12.60;98.00;;;;;;5016253;28;20033;-69
2021/09/13 04:05:46;;;;;;;4.93;3.22;;;12.50;98.00;;;;;;5017162;28;20112;-70
2021/09/13 04:13:06;;;;;;;6.55;3.60;;;12.30;98.00;;;;;;5016732;28;20450;-70
2021/09/13 04:15:32;;;;;;;6.32;3.85;;;12.30;98.00;;;;;;5017072;28;20030;-70
2021/09/13 04:17:57;;;;;;;7.28;3.70;;;12.20;98.00;;;;;;5009776;28;20030;-69
2021/09/13 04:20:23;;;;;;;6.80;4.13;;;12.10;98.00;;;;;;5016184;28;20421;-70
2021/09/13 04:22:49;;;;;;;7.68;4.32;;;12.20;98.00;;;;;;5016953;28;20442;-70
2021/09/13 04:25:14;;;;;;;5.25;3.45;;;12.10;98.00;;;;;;5008494;28;20030;-70
2021/09/13 04:27:40;;;;;;;6.45;4.13;;;12.00;97.50;;;;;;5016876;28;20308;-70
2021/09/13 04:30:06;;;;;;;6.07;3.72;;;12.00;97.90;;;;;;5016565;28;20022;-69
2021/09/13 04:32:32;;;;;;;7.43;4.40;;;11.90;97.40;;;;;;5016120;28;20033;-70
2021/09/13 04:34:58;;;;;;;10.07;4.13;;;11.90;97.40;;;;;;5017117;28;20105;-69
2021/09/13 04:37:23;;;;;;;12.85;4.40;;;11.90;97.50;;;;;;5014998;28;20414;-69
2021/09/13 04:39:49;;;;;;;7.05;4.07;;;11.80;97.60;;;;;;5015793;28;20044;-69
2021/09/13 04:42:14;;;;;;;7.72;4.00;;;11.70;97.40;;;;;;5016636;28;20064;-69
2021/09/13 04:44:40;;;;;;;6.47;4.30;;;11.60;97.00;;;;;;5016478;28;20034;-69
2021/09/13 04:47:06;;;;;;;9.23;4.25;;;11.60;97.10;;;;;;5013619;28;20029;-69
2021/09/13 04:49:31;;;;;;;7.22;4.07;;;11.60;96.90;;;;;;5016202;28;20481;-69
2021/09/13 04:51:57;;;;;;;6.28;3.95;;;11.60;96.50;;;;;;5016508;28;20036;-70
2021/09/13 04:54:22;;;;;;;6.75;4.00;;;11.60;96.10;;;;;;5010830;28;20025;-70
2021/09/13 04:56:48;;;;;;;7.32;4.35;;;11.60;96.30;;;;;;5016736;28;20029;-69
2021/09/13 04:59:15;;;;;;;7.20;4.45;;;11.60;96.50;;;;;;5015451;28;20423;-70
2021/09/13 05:01:43;;;;;;;9.48;4.65;;;11.60;96.20;;;;;;5014677;28;20107;-69
2021/09/13 05:04:09;;;;;;;7.10;4.28;;;11.60;96.10;;;;;;5031833;28;20025;-69
2021/09/13 05:06:39;;;;;;;6.55;4.35;;;11.60;95.60;;;;;;5001831;28;20027;-70
2021/09/13 05:09:05;;;;;;;7.15;4.43;;;11.70;95.70;;;;;;5000642;28;20156;-69
2021/09/13 05:11:34;;;;;;;7.93;4.55;;;11.70;96.00;;;;;;5015585;28;20061;-69
2021/09/13 05:14:00;;;;;;;6.78;4.38;;;11.70;96.00;;;;;;5016379;28;20442;-69
2021/09/13 05:16:31;;;;;;;6.72;4.00;;;11.60;96.00;;;;;;5011539;28;20022;-70
2021/09/13 05:18:57;;;;;;;6.95;4.63;;;11.60;95.30;;;;;;5016584;28;20022;-69
2021/09/13 05:21:23;;;;;;;6.97;4.30;;;11.60;95.90;;;;;;5015822;28;20318;-69
2021/09/13 05:23:52;;;;;;;8.98;5.50;;;11.60;95.40;;;;;;5011424;28;20365;-69
2021/09/13 05:26:20;;;;;;;9.07;4.50;;;11.70;95.40;;;;;;5011519;28;20446;-70
2021/09/13 05:28:49;;;;;;;8.30;4.80;;;11.70;95.80;;;;;;5014671;28;20029;-69
2021/09/13 05:31:15;;;;;;;7.03;4.78;;;11.70;95.40;;;;;;5014335;28;20423;-69
2021/09/13 05:33:40;;;;;;;7.97;4.88;;;11.70;95.10;;;;;;5012334;28;20036;-69
2021/09/13 05:36:06;;;;;;;9.63;5.30;;;11.80;95.10;;;;;;5014469;28;20025;-69
2021/09/13 05:38:35;;;;;;;8.18;5.13;;;11.80;95.20;;;;;;5014605;28;20426;-69
2021/09/13 05:41:00;;;;;;;9.93;5.40;;;11.90;94.70;;;;;;5015221;28;20046;-70
2021/09/13 05:43:26;;;;;;;8.45;5.57;;;12.00;94.80;;;;;;5015085;28;20029;-69
2021/09/13 05:45:55;;;;;;;6.32;4.63;;;12.20;94.70;;;;;;5015545;28;20457;-69
2021/09/13 05:48:24;;;;;;;9.75;5.03;;;12.30;94.90;;;;;;5014793;28;20045;-69
2021/09/13 05:50:50;;;;;;;7.70;4.85;;;12.50;94.90;;;;;;5010993;28;20018;-69
2021/09/13 05:53:16;;;;;;;8.90;5.10;;;12.60;95.20;;;;;;5013878;28;20030;-69
2021/09/13 05:55:42;;;;;;;8.05;4.40;;;12.80;96.30;;;;;;5016307;28;20083;-69
2021/09/13 05:58:28;;;;;;;7.25;4.40;;;12.90;97.90;;;;;;5015281;28;20018;-69
2021/09/13 06:00:54;;;;;;;6.68;4.40;;;13.00;97.80;;;;;;5015582;28;20045;-69
2021/09/13 06:03:20;;;;;;;7.07;4.50;;;13.10;97.80;;;;;;5008571;28;20391;-71
2021/09/13 06:05:46;;;;;;;7.32;4.68;;;13.30;98.00;;;;;;4996451;28;20431;-70
2021/09/13 06:08:14;;;;;;;8.05;4.07;;;13.40;98.00;;;;;;5007246;28;20041;-70
2021/09/13 06:10:40;;;;;;;8.30;4.60;;;13.60;98.00;;;;;;5016034;28;20473;-70
2021/09/13 06:13:11;;;;;;;9.73;4.30;;;13.80;98.00;;;;;;5015638;28;20038;-70
2021/09/13 06:15:37;;;;;;;8.85;4.30;;;13.90;98.00;;;;;;5015932;28;20109;-70
2021/09/13 06:18:03;;;;;;;8.32;3.75;;;14.00;98.00;;;;;;5015937;28;20034;-70
2021/09/13 06:20:28;;;;;;;6.05;3.58;;;14.10;98.00;;;;;;5015974;28;20026;-70
2021/09/13 06:22:54;;;;;;;6.30;3.90;;;14.20;98.00;;;;;;5014847;28;20065;-70
2021/09/13 06:25:20;;;;;;;7.93;4.70;;;14.30;98.00;;;;;;5015482;28;20026;-70
2021/09/13 06:27:46;;;;;;;6.28;3.80;;;14.40;98.00;;;;;;5015811;28;20029;-70
2021/09/13 06:30:12;;;;;;;6.30;3.85;;;14.50;98.00;;;;;;5015834;28;20100;-70
2021/09/13 06:32:39;;;;;;;8.93;4.13;;;14.40;98.00;;;;;;5012873;28;20033;-70
2021/09/13 06:35:05;;;;;;;8.27;4.03;;;14.50;98.00;;;;;;5015232;28;20045;-69
2021/09/13 06:37:31;;;;;;;7.55;4.80;;;14.60;98.00;;;;;;5030491;28;20034;-69
2021/09/13 06:39:58;;;;;;;7.75;4.72;;;14.80;98.00;;;;;;5014169;28;20038;-70
2021/09/13 06:42:26;;;;;;;6.40;4.03;;;14.90;98.00;;;;;;5017142;28;20037;-69
2021/09/13 06:44:52;;;;;;;6.15;3.70;;;15.10;98.00;;;;;;5019310;28;20108;-70
2021/09/13 06:47:33;;;;;;;6.78;3.90;;;15.20;98.00;;;;;;5018866;28;20065;-70
2021/09/13 06:49:59;;;;;;;7.45;3.88;;;15.30;98.00;;;;;;4999643;28;20038;-70
2021/09/13 06:52:24;;;;;;;7.88;3.67;;;15.40;98.00;;;;;;5014841;28;20026;-69
2021/09/13 06:54:50;;;;;;;5.78;3.28;;;15.60;98.00;;;;;;5017550;28;20038;-70
2021/09/13 06:57:17;;;;;;;7.47;4.05;;;15.80;98.00;;;;;;5018872;28;20021;-70
2021/09/13 06:59:43;;;;;;;6.20;3.90;;;15.90;98.00;;;;;;5019374;28;20044;-70
2021/09/13 07:02:09;;;;;;;7.25;3.88;;;16.00;98.00;;;;;;5018932;28;20034;-70
2021/09/13 07:04:34;;;;;;;5.70;3.67;;;16.20;98.00;;;;;;5019167;28;20398;-70
2021/09/13 07:07:02;;;;;;;6.30;3.90;;;16.30;97.90;;;;;;5017544;28;20037;-70
2021/09/13 07:09:28;;;;;;;7.03;4.30;;;16.40;97.70;;;;;;5014217;28;20022;-69
2021/09/13 07:11:57;;;;;;;8.15;5.38;;;16.60;97.60;;;;;;5010777;28;20326;-69
2021/09/13 07:14:22;;;;;;;8.38;4.75;;;16.60;97.60;;;;;;5018938;28;20026;-70
2021/09/13 07:16:48;;;;;;;6.35;4.07;;;16.70;97.70;;;;;;5018605;28;20021;-69
2021/09/13 07:19:14;;;;;;;7.25;4.38;;;16.80;97.70;;;;;;5018856;28;20075;-70
2021/09/13 07:21:39;;;;;;;8.05;5.05;;;17.00;97.50;;;;;;5018461;28;20411;-70
2021/09/13 07:24:05;;;;;;;9.57;5.07;;;17.10;97.20;;;;;;5010455;28;20104;-70
2021/09/13 07:26:31;;;;;;;7.95;4.95;;;17.20;96.90;;;;;;5018733;28;20096;-70
2021/09/13 07:28:56;;;;;;;8.30;4.72;;;17.30;97.00;;;;;;5018514;28;20308;-70
2021/09/13 07:31:22;;;;;;;8.13;4.00;;;17.30;97.20;;;;;;5018763;28;20045;-70
2021/09/13 07:33:48;;;;;;;5.38;3.08;;;17.40;97.20;;;;;;5018311;28;20026;-70
2021/09/13 07:36:13;;;;;;;5.30;3.58;;;17.60;97.30;;;;;;5018365;28;20057;-70
2021/09/13 07:38:39;;;;;;;11.52;3.80;;;17.60;97.40;;;;;;5032666;28;20026;-70
2021/09/13 07:41:05;;;;;;;6.85;3.47;;;17.70;96.80;;;;;;5016793;28;20089;-70
2021/09/13 07:43:30;;;;;;;8.93;3.80;;;17.80;97.00;;;;;;5006209;28;20420;-75
2021/09/13 07:45:56;;;;;;;5.70;3.40;;;18.00;96.10;;;;;;5015505;28;20450;-70
2021/09/13 07:48:22;;;;;;;6.50;3.88;;;18.10;96.40;;;;;;5018409;28;20088;-70
2021/09/13 07:50:48;;;;;;;6.00;3.67;;;18.10;96.20;;;;;;5017741;28;20053;-70
2021/09/13 07:53:14;;;;;;;5.70;3.65;;;18.20;96.40;;;;;;5016728;28;20061;-70
2021/09/13 07:55:40;;;;;;;5.10;3.50;;;18.30;96.40;;;;;;5017462;28;20334;-70
2021/09/13 07:58:05;;;;;;;6.07;3.95;;;18.50;96.20;;;;;;5017804;28;20080;-70
2021/09/13 08:00:31;;;;;;;7.15;4.47;;;18.70;95.90;;;;;;5017648;28;20411;-70
2021/09/13 08:02:57;;;;;;;9.13;5.38;;;18.70;95.80;;;;;;5012597;28;20105;-70
2021/09/13 08:05:22;;;;;;;7.40;3.95;;;18.70;95.70;;;;;;5016614;28;20411;-70
2021/09/13 08:07:48;;;;;;;6.15;3.92;;;19.00;95.70;;;;;;5017611;28;20057;-70
2021/09/13 08:10:14;;;;;;;13.00;3.67;;;19.70;94.20;;;;;;5008316;28;20408;-70
2021/09/13 08:12:42;;;;;;;8.68;4.00;;;20.90;91.30;;;;;;5003388;28;20026;-70
2021/09/13 08:15:08;;;;;;;5.85;3.38;;;22.40;87.40;;;;;;5002966;28;20093;-70
2021/09/13 08:17:34;;;;;;;7.38;3.40;;;23.90;82.80;;;;;;5017388;28;20034;-69
2021/09/13 08:20:00;;;;;;;6.90;3.20;;;24.70;80.30;;;;;;5016018;28;20095;-69
2021/09/13 08:22:26;;;;;;;6.60;3.28;;;25.40;77.80;;;;;;5017272;28;20026;-70
2021/09/13 08:24:54;;;;;;;7.65;3.17;;;25.30;78.00;;;;;;5016532;28;20030;-70
2021/09/13 08:27:19;;;;;;;5.90;3.25;;;25.70;76.80;;;;;;5017302;28;20046;-69
2021/09/13 08:29:45;;;;;;;7.47;3.70;;;25.90;75.90;;;;;;5017436;28;20093;-70
2021/09/13 08:32:11;;;;;;;9.00;2.60;;;26.50;75.50;;;;;;5017094;28;20175;-70
2021/09/13 08:34:39;;;;;;;9.30;2.78;;;26.80;75.00;;;;;;5017183;28;20026;-70
2021/09/13 08:37:05;;;;;;;4.53;2.35;;;26.90;73.50;;;;;;5016617;28;20030;-70
2021/09/13 08:39:30;;;;;;;5.38;3.17;;;26.30;74.40;;;;;;5015923;28;20056;-70
2021/09/13 08:41:56;;;;;;;5.13;2.95;;;26.10;74.30;;;;;;5012822;28;20105;-70
2021/09/13 08:44:22;;;;;;;4.72;2.70;;;25.30;76.10;;;;;;5016167;28;20026;-70
2021/09/13 08:47:02;;;;;;;5.38;2.60;;;25.30;76.60;;;;;;5017098;28;20137;-70
2021/09/13 08:49:30;;;;;;;6.63;3.00;;;25.50;76.30;;;;;;5016512;28;20088;-69
2021/09/13 08:51:56;;;;;;;5.78;2.97;;;25.40;76.80;;;;;;5016755;28;20030;-69
2021/09/13 08:54:24;;;;;;;5.03;2.78;;;25.50;76.10;;;;;;5015751;28;20030;-69
2021/09/13 08:56:56;;;;;;;6.03;3.10;;;26.20;76.10;;;;;;5017007;28;20034;-71
2021/09/13 08:59:24;;;;;;;4.63;2.80;;;26.80;73.30;;;;;;5017024;28;20029;-71
2021/09/13 09:01:51;;;;;;;5.43;2.88;;;27.10;72.40;;;;;;5016476;28;20109;-70
2021/09/13 09:04:18;;;;;;;6.88;3.08;;;27.20;73.60;;;;;;5016500;28;20025;-70
2021/09/13 09:06:47;;;;;;;5.80;3.05;;;27.10;73.70;;;;;;5015934;28;20103;-70
2021/09/13 09:09:18;;;;;;;5.00;2.90;;;26.50;74.10;;;;;;5015165;28;20029;-70
2021/09/13 09:12:02;;;;;;;7.75;3.42;;;25.50;76.40;;;;;;5016810;28;20029;-70
2021/09/13 09:14:36;;;;;;;6.82;3.05;;;24.70;79.20;;;;;;5016862;28;20021;-70
2021/09/13 09:17:05;;;;;;;7.95;3.25;;;24.50;79.80;;;;;;5016822;28;20045;-70
2021/09/13 09:19:31;;;;;;;4.90;3.20;;;24.00;80.60;;;;;;5016721;28;20026;-70
2021/09/13 09:22:15;;;;;;;5.68;2.80;;;24.20;81.10;;;;;;5016568;28;20018;-70
2021/09/13 09:24:41;;;;;;;5.72;2.90;;;25.30;79.30;;;;;;5015433;28;20069;-70
2021/09/13 09:27:07;;;;;;;5.75;2.90;;;26.20;76.50;;;;;;5016748;28;20033;-70
2021/09/13 09:29:33;;;;;;;5.45;3.25;;;26.20;76.50;;;;;;5016603;28;20037;-70
2021/09/13 09:32:00;;;;;;;5.95;3.10;;;25.60;76.80;;;;;;5016469;28;20040;-70
2021/09/13 09:34:33;;;;;;;6.53;3.33;;;25.00;79.20;;;;;;5016484;28;20018;-70
2021/09/13 09:37:05;;;;;;;6.80;4.30;;;24.80;79.40;;;;;;5052591;22;20140;-72
2021/09/13 09:39:35;;;;;;;6.43;4.13;;;24.20;80.60;;;;;;5054463;28;20028;-71
2021/09/13 09:42:02;;;;;;;7.70;3.72;;;23.50;83.70;;;;;;5055758;28;20083;-70
2021/09/13 09:44:28;;;;;;;9.80;4.47;;;23.80;83.00;;;;;;5056086;28;20386;-70
2021/09/13 09:47:08;;;;;;;9.43;5.10;;;23.30;83.80;;;;;;5055867;28;20383;-70
2021/09/13 09:49:51;;;;;;;7.38;4.00;;;22.60;85.50;;;;;;5055879;28;20024;-70
2021/09/13 09:52:40;;;;;;;8.70;4.50;;;23.10;85.80;;;;;;5055770;28;20032;-70
2021/09/13 09:55:09;;;;;;;6.10;3.90;;;24.30;81.40;;;;;;5053774;28;20029;-70
2021/09/13 09:57:34;;;;;;;7.47;3.80;;;24.70;81.20;;;;;;5055946;28;20025;-70
2021/09/13 10:00:16;;;;;;;9.80;3.60;;;25.20;79.90;;;;;;5055168;28;20021;-70
2021/09/13 10:02:42;;;;;;;6.90;3.47;;;26.20;77.60;;;;;;5054257;28;20417;-70
2021/09/13 10:05:08;;;;;;;7.28;3.47;;;24.90;79.30;;;;;;5054754;28;20033;-69
2021/09/13 10:07:34;;;;;;;6.30;3.80;;;23.80;83.00;;;;;;5055096;28;20670;-70
2021/09/13 10:10:00;;;;;;;5.43;3.47;;;23.20;85.00;;;;;;5047907;28;20321;-70
2021/09/13 10:12:25;;;;;;;8.05;3.95;;;23.80;84.40;;;;;;5053629;28;20080;-70
2021/09/13 10:14:51;;;;;;;6.15;3.15;;;24.90;81.40;;;;;;5055713;28;20313;-70
2021/09/13 10:17:17;;;;;;;8.05;3.58;;;25.70;79.20;;;;;;5056227;28;20033;-70
2021/09/13 10:19:43;;;;;;;6.65;3.50;;;26.10;78.00;;;;;;5039806;28;20026;-70
2021/09/13 10:22:09;;;;;;;6.20;3.22;;;26.20;76.70;;;;;;5039896;28;20022;-70
2021/09/13 10:24:36;;;;;;;6.50;3.28;;;26.30;77.10;;;;;;5038483;28;20021;-70
2021/09/13 10:27:14;;;;;;;5.80;3.42;;;26.70;76.60;;;;;;5059312;28;20350;-69
2021/09/13 10:29:40;;;;;;;5.70;3.35;;;27.40;75.60;;;;;;5059484;28;20036;-70
2021/09/13 10:32:11;;;;;;;6.07;3.58;;;27.80;74.60;;;;;;5059467;28;20102;-69
2021/09/13 10:34:47;;;;;;;5.50;3.40;;;28.30;72.30;;;;;;5059612;28;20037;-70
2021/09/13 10:37:19;;;;;;;5.53;3.30;;;27.90;73.80;;;;;;5059337;28;20087;-70
2021/09/13 10:39:58;;;;;;;5.38;3.40;;;27.80;74.30;;;;;;5048877;28;20022;-69
2021/09/13 10:42:27;;;;;;;5.45;3.45;;;28.30;71.70;;;;;;5039404;28;20036;-69
2021/09/13 10:45:23;;;;;;;5.97;3.70;;;29.10;70.80;;;;;;5038499;28;20071;-69
2021/09/13 10:47:58;;;;;;;7.20;3.70;;;29.70;69.40;;;;;;5039265;28;20044;-70
2021/09/13 10:50:26;;;;;;;7.15;3.33;;;29.40;69.60;;;;;;5039286;28;20100;-70
2021/09/13 10:52:54;;;;;;;5.53;3.40;;;29.00;70.40;;;;;;5037998;28;20029;-70
2021/09/13 10:55:27;;;;;;;5.88;3.65;;;28.90;72.10;;;;;;5040282;28;20042;-71
2021/09/13 10:58:13;;;;;;;5.85;3.97;;;28.50;71.60;;;;;;5039804;28;20064;-69
2021/09/13 11:00:44;;;;;;;5.75;3.28;;;27.60;72.80;;;;;;5059038;28;20076;-70
2021/09/13 11:06:26;;;;;;;6.97;3.65;;;27.80;74.50;;;;;;5058767;28;20083;-70
2021/09/13 11:08:54;;;;;;;5.88;3.33;;;28.30;74.40;;;;;;5055880;28;20317;-70
2021/09/13 11:11:31;;;;;;;6.55;4.15;;;28.30;72.20;;;;;;5038911;28;20043;-69
2021/09/13 11:14:10;;;;;;;6.53;3.90;;;28.00;72.50;;;;;;5038837;28;20030;-70
2021/09/13 11:16:40;;;;;;;6.45;4.15;;;27.00;76.00;;;;;;5038730;28;20025;-70
2021/09/13 11:19:10;;;;;;;6.55;3.72;;;26.60;76.00;;;;;;5038683;28;20026;-70
2021/09/13 11:21:50;;;;;;;6.95;4.28;;;25.90;77.80;;;;;;5038666;28;20022;-70
2021/09/13 11:24:21;;;;;;;5.93;3.63;;;25.70;77.40;;;;;;5045800;28;20029;-70
2021/09/13 11:26:51;;;;;;;5.03;3.13;;;26.40;77.10;;;;;;5054350;28;20032;-70
2021/09/13 11:29:25;;;;;;;6.15;3.70;;;26.80;73.90;;;;;;5056378;28;20021;-70
2021/09/13 11:31:53;;;;;;;7.57;3.20;;;26.20;75.80;;;;;;5057923;28;20032;-69
2021/09/13 11:34:22;;;;;;;6.35;3.40;;;26.10;74.90;;;;;;5058048;28;20021;-69
2021/09/13 11:36:56;;;;;;;6.90;3.53;;;27.10;73.10;;;;;;5055798;28;20068;-70
2021/09/13 11:39:24;;;;;;;8.02;4.40;;;28.20;71.50;;;;;;5056090;28;20310;-70
2021/09/13 11:42:06;;;;;;;9.23;4.50;;;28.90;70.60;;;;;;5056484;28;20356;-69
2021/09/13 11:44:47;;;;;;;6.75;3.60;;;28.60;70.40;;;;;;5057686;28;20029;-70
2021/09/13 11:47:15;;;;;;;5.47;3.42;;;29.10;70.10;;;;;;5057916;28;20025;-69
2021/09/13 11:49:44;;;;;;;6.75;3.53;;;29.50;67.20;;;;;;5055737;28;20021;-70
2021/09/13 11:52:27;;;;;;;6.38;3.33;;;29.60;66.60;;;;;;5057804;28;20029;-69
2021/09/13 11:54:56;;;;;;;6.45;3.20;;;29.60;68.10;;;;;;5055924;28;20048;-69
2021/09/13 11:57:37;;;;;;;8.85;3.28;;;29.60;66.20;;;;;;5057135;28;20025;-70
2021/09/13 12:00:06;;;;;;;6.60;3.50;;;28.60;67.80;;;;;;5057050;28;20029;-69
2021/09/13 12:02:33;;;;;;;6.28;3.60;;;27.50;69.80;;;;;;5057642;28;20321;-70
2021/09/13 12:05:05;;;;;;;5.45;3.38;;;26.60;72.50;;;;;;5057303;28;20028;-70
2021/09/13 12:07:31;;;;;;;5.57;3.65;;;26.20;74.40;;;;;;5056715;28;20401;-70
2021/09/13 12:09:57;;;;;;;5.88;3.58;;;26.40;75.60;;;;;;5056256;28;20153;-70
2021/09/13 12:12:25;;;;;;;7.55;3.80;;;26.80;73.60;;;;;;5052786;28;20030;-70
2021/09/13 12:15:00;;;;;;;6.35;3.78;;;26.70;76.20;;;;;;5037862;28;20071;-70
2021/09/13 12:17:42;;;;;;;6.57;4.15;;;26.50;74.00;;;;;;5039382;28;20021;-69
2021/09/13 12:20:29;;;;;;;6.72;3.67;;;26.70;72.80;;;;;;5055998;28;20029;-70
2021/09/13 12:23:09;;;;;;;5.88;3.40;;;26.50;72.60;;;;;;5055959;28;20329;-69
2021/09/13 12:25:45;;;;;;;7.68;3.80;;;27.10;72.10;;;;;;5056553;28;20027;-70
2021/09/13 12:28:12;;;;;;;5.95;3.60;;;27.80;71.70;;;;;;5056606;28;20140;-69
2021/09/13 12:30:41;;;;;;;5.47;3.05;;;28.40;68.60;;;;;;5057343;28;20028;-69
2021/09/13 12:33:09;;;;;;;6.78;3.47;;;28.50;67.70;;;;;;5057232;28;20033;-69
2021/09/13 12:35:43;;;;;;;5.63;3.00;;;28.10;69.60;;;;;;5057197;28;20029;-70
2021/09/13 12:38:22;;;;;;;5.70;3.47;;;28.20;68.90;;;;;;5055310;28;20073;-70
2021/09/13 12:41:00;;;;;;;4.80;3.10;;;27.90;68.00;;;;;;5056277;28;20020;-70
2021/09/13 12:43:36;;;;;;;4.97;3.00;;;27.90;69.60;;;;;;5057008;28;20321;-70
2021/09/13 12:46:13;;;;;;;4.90;3.10;;;28.00;69.30;;;;;;5054362;28;20029;-70
2021/09/13 12:48:43;;;;;;;7.00;3.17;;;28.10;69.00;;;;;;5056210;28;20041;-69
2021/09/13 12:51:12;;;;;;;5.38;3.00;;;28.50;68.90;;;;;;5056622;28;20078;-70
2021/09/13 12:53:38;;;;;;;5.13;3.38;;;29.00;68.40;;;;;;5055219;28;20025;-70
2021/09/13 12:56:15;;;;;;;5.93;2.92;;;29.00;66.40;;;;;;5056064;28;20037;-69
2021/09/13 12:58:43;;;;;;;7.93;3.30;;;28.90;67.40;;;;;;5056704;28;20318;-70